createdAt,value
2019-04-26T00:00:34.580Z,10.89
2019-04-26T00:01:34.613Z,10.90
2019-04-26T00:02:34.645Z,10.86
2019-04-26T00:03:34.679Z,10.84
2019-04-26T00:04:34.712Z,10.75
2019-04-26T00:05:36.420Z,10.77
2019-04-26T00:06:34.776Z,10.71
2019-04-26T00:07:34.814Z,10.72
2019-04-26T00:08:34.842Z,10.69
2019-04-26T00:09:34.878Z,10.67
2019-04-26T00:10:34.907Z,10.69
2019-04-26T00:11:34.941Z,10.72
2019-04-26T00:12:34.975Z,10.68
2019-04-26T00:13:35.005Z,10.76
2019-04-26T00:14:35.038Z,10.72
2019-04-26T00:15:35.069Z,10.68
2019-04-26T00:16:35.104Z,10.61
2019-04-26T00:17:35.138Z,10.59
2019-04-26T00:18:35.168Z,10.49
2019-04-26T00:19:35.200Z,10.49
2019-04-26T00:20:35.234Z,10.55
2019-04-26T00:21:35.270Z,10.61
2019-04-26T00:22:35.298Z,10.68
2019-04-26T00:23:35.330Z,10.69
2019-04-26T00:24:35.363Z,10.68
2019-04-26T00:25:35.400Z,10.65
2019-04-26T00:26:35.430Z,10.68
2019-04-26T00:27:35.460Z,10.75
2019-04-26T00:28:35.494Z,10.72
2019-04-26T00:29:35.529Z,10.72
2019-04-26T00:30:35.560Z,10.77
2019-04-26T00:31:35.589Z,10.71
2019-04-26T00:32:35.622Z,10.76
2019-04-26T00:33:35.659Z,10.87
2019-04-26T00:34:35.687Z,10.90
2019-04-26T00:35:46.942Z,10.87
2019-04-26T00:36:35.752Z,11.00
2019-04-26T00:37:35.788Z,10.98
2019-04-26T00:38:35.818Z,10.95
2019-04-26T00:39:35.854Z,10.87
2019-04-26T00:40:35.882Z,11.04
2019-04-26T00:41:35.927Z,11.02
2019-04-26T00:42:35.944Z,11.04
2019-04-26T00:43:35.976Z,10.98
2019-04-26T00:44:36.012Z,11.05
2019-04-26T00:45:36.042Z,11.01
2019-04-26T00:46:36.073Z,10.95
2019-04-26T00:47:36.106Z,11.00
2019-04-26T00:48:36.137Z,11.00
2019-04-26T00:49:43.583Z,10.95
2019-04-26T00:50:36.205Z,10.82
2019-04-26T00:51:36.233Z,10.89
2019-04-26T00:52:36.286Z,10.83
2019-04-26T00:53:36.301Z,10.83
2019-04-26T00:54:36.333Z,10.89
2019-04-26T00:55:36.361Z,11.01
2019-04-26T00:56:36.396Z,10.95
2019-04-26T00:57:36.427Z,11.05
2019-04-26T00:58:36.461Z,11.02
2019-04-26T00:59:36.491Z,10.95
2019-04-26T01:00:36.526Z,10.87
2019-04-26T01:01:36.555Z,11.07
2019-04-26T01:02:36.589Z,11.02
2019-04-26T01:03:36.619Z,11.07
2019-04-26T01:04:36.651Z,11.04
2019-04-26T01:05:36.685Z,11.01
2019-04-26T01:06:36.714Z,11.01
2019-04-26T01:07:36.750Z,11.02
2019-04-26T01:08:36.781Z,10.97
2019-04-26T01:09:36.811Z,10.97
2019-04-26T01:10:36.844Z,10.97
2019-04-26T01:11:36.877Z,10.92
2019-04-26T01:12:36.908Z,10.97
2019-04-26T01:13:36.941Z,10.92
2019-04-26T01:14:36.975Z,10.92
2019-04-26T01:15:37.010Z,10.90
2019-04-26T01:16:37.037Z,11.00
2019-04-26T01:17:37.072Z,10.97
2019-04-26T01:18:37.099Z,10.90
2019-04-26T01:19:37.132Z,10.95
2019-04-26T01:20:37.164Z,10.84
2019-04-26T01:21:37.200Z,10.83
2019-04-26T01:22:37.229Z,10.82
2019-04-26T01:23:37.263Z,10.76
2019-04-26T01:24:37.294Z,10.77
2019-04-26T01:25:37.326Z,10.82
2019-04-26T01:26:37.357Z,10.76
2019-04-26T01:27:37.394Z,10.83
2019-04-26T01:28:37.421Z,10.84
2019-04-26T01:29:37.454Z,10.83
2019-04-26T01:30:37.485Z,10.89
2019-04-26T01:31:37.519Z,10.83
2019-04-26T01:32:37.552Z,10.79
2019-04-26T01:33:37.584Z,10.87
2019-04-26T01:34:37.619Z,10.84
2019-04-26T01:35:37.646Z,10.82
2019-04-26T01:36:37.681Z,10.87
2019-04-26T01:37:37.712Z,10.83
2019-04-26T01:38:37.745Z,10.87
2019-04-26T01:39:37.775Z,10.86
2019-04-26T01:40:37.811Z,10.76
2019-04-26T01:41:37.845Z,10.62
2019-04-26T01:42:37.872Z,10.51
2019-04-26T01:43:37.905Z,10.45
2019-04-26T01:44:37.937Z,10.45
2019-04-26T01:45:37.971Z,10.38
2019-04-26T01:46:38.005Z,10.38
2019-04-26T01:47:38.035Z,10.33
2019-04-26T01:48:38.067Z,10.18
2019-04-26T01:49:38.102Z,10.24
2019-04-26T01:50:38.129Z,10.17
2019-04-26T01:51:38.165Z,10.21
2019-04-26T01:52:38.200Z,10.10
2019-04-26T01:53:38.229Z,10.21
2019-04-26T01:54:38.258Z,10.24
2019-04-26T01:55:38.291Z,10.15
2019-04-26T01:56:38.323Z,10.23
2019-04-26T01:57:38.357Z,10.23
2019-04-26T01:58:38.389Z,10.31
2019-04-26T01:59:38.421Z,10.17
2019-04-26T02:00:38.470Z,10.21
2019-04-26T02:01:38.482Z,10.34
2019-04-26T02:02:38.521Z,10.23
2019-04-26T02:03:38.546Z,10.27
2019-04-26T02:04:38.579Z,10.18
2019-04-26T02:05:38.611Z,10.27
2019-04-26T02:06:38.644Z,10.13
2019-04-26T02:07:38.696Z,9.95
2019-04-26T02:08:38.706Z,9.99
2019-04-26T02:09:38.739Z,9.91
2019-04-26T02:10:38.776Z,9.85
2019-04-26T02:11:38.805Z,9.84
2019-04-26T02:12:38.837Z,9.84
2019-04-26T02:13:38.873Z,9.77
2019-04-26T02:14:38.906Z,9.84
2019-04-26T02:15:38.931Z,9.88
2019-04-26T02:16:38.966Z,9.92
2019-04-26T02:17:38.993Z,10.07
2019-04-26T02:18:39.028Z,10.10
2019-04-26T02:19:39.064Z,10.12
2019-04-26T02:20:39.089Z,10.18
2019-04-26T02:21:39.125Z,10.25
2019-04-26T02:22:39.152Z,10.30
2019-04-26T02:23:39.185Z,10.38
2019-04-26T02:24:39.218Z,10.38
2019-04-26T02:25:39.250Z,10.49
2019-04-26T02:26:39.280Z,10.62
2019-04-26T02:27:39.318Z,10.75
2019-04-26T02:28:39.348Z,10.76
2019-04-26T02:29:39.378Z,10.77
2019-04-26T02:30:39.423Z,10.89
2019-04-26T02:31:39.441Z,10.92
2019-04-26T02:32:39.482Z,10.84
2019-04-26T02:33:39.512Z,11.01
2019-04-26T02:34:39.544Z,11.16
2019-04-26T02:35:39.570Z,11.26
2019-04-26T02:36:56.081Z,11.34
2019-04-26T02:37:39.640Z,11.40
2019-04-26T02:38:39.679Z,11.53
2019-04-26T02:39:39.703Z,11.80
2019-04-26T02:40:39.735Z,11.81
2019-04-26T02:41:39.763Z,11.86
2019-04-26T02:42:39.794Z,11.96
2019-04-26T02:43:39.830Z,11.99
2019-04-26T02:44:39.858Z,11.88
2019-04-26T02:45:39.892Z,11.88
2019-04-26T02:46:39.923Z,11.89
2019-04-26T02:47:39.957Z,11.99
2019-04-26T02:48:39.988Z,11.85
2019-04-26T02:49:40.019Z,11.85
2019-04-26T02:50:40.052Z,11.83
2019-04-26T02:51:40.087Z,11.80
2019-04-26T02:52:40.116Z,11.78
2019-04-26T02:53:40.148Z,11.93
2019-04-26T02:54:40.183Z,11.83
2019-04-26T02:55:42.677Z,11.83
2019-04-26T02:56:40.318Z,12.02
2019-04-26T02:57:40.281Z,12.05
2019-04-26T02:58:40.311Z,11.91
2019-04-26T02:59:40.959Z,11.99
2019-04-26T03:00:40.374Z,12.02
2019-04-26T03:01:40.406Z,11.97
2019-04-26T03:02:40.602Z,11.89
2019-04-26T03:03:40.473Z,11.95
2019-04-26T03:04:40.504Z,11.96
2019-04-26T03:05:40.549Z,12.07
2019-04-26T03:06:41.225Z,12.00
2019-04-26T03:07:40.599Z,11.99
2019-04-26T03:08:40.630Z,11.89
2019-04-26T03:09:40.663Z,11.77
2019-04-26T03:10:40.697Z,11.86
2019-04-26T03:11:40.733Z,11.80
2019-04-26T03:12:40.761Z,11.77
2019-04-26T03:13:40.790Z,11.81
2019-04-26T03:14:41.989Z,11.85
2019-04-26T03:15:40.859Z,11.80
2019-04-26T03:16:42.855Z,11.67
2019-04-26T03:17:40.924Z,11.74
2019-04-26T03:18:41.577Z,11.71
2019-04-26T03:19:41.000Z,11.77
2019-04-26T03:20:42.240Z,11.86
2019-04-26T03:21:41.051Z,11.78
2019-04-26T03:22:42.567Z,11.80
2019-04-26T03:23:56.610Z,11.86
2019-04-26T03:24:42.537Z,11.81
2019-04-26T03:25:42.246Z,12.03
2019-04-26T03:26:43.153Z,11.96
2019-04-26T03:27:43.363Z,12.07
2019-04-26T03:28:43.441Z,12.00
2019-04-26T03:29:43.618Z,11.97
2019-04-26T03:30:49.020Z,11.89
2019-04-26T03:31:53.054Z,11.85
2019-04-26T03:32:50.448Z,11.77
2019-04-26T03:33:52.144Z,11.96
2019-04-26T03:34:50.728Z,11.85
2019-04-26T03:35:55.920Z,11.85
2019-04-26T03:36:43.843Z,11.62
2019-04-26T03:37:42.655Z,11.56
2019-04-26T03:38:43.440Z,11.51
2019-04-26T03:39:42.873Z,11.45
2019-04-26T03:40:43.223Z,11.38
2019-04-26T03:41:42.886Z,11.23
2019-04-26T03:42:42.860Z,11.25
2019-04-26T03:43:43.351Z,11.20
2019-04-26T03:44:42.691Z,11.05
2019-04-26T03:45:43.093Z,10.97
2019-04-26T03:46:43.204Z,10.84
2019-04-26T03:47:43.979Z,10.71
2019-04-26T03:48:43.489Z,10.69
2019-04-26T03:49:43.558Z,10.55
2019-04-26T03:50:42.860Z,10.41
2019-04-26T03:51:43.098Z,10.34
2019-04-26T03:52:43.544Z,10.30
2019-04-26T03:53:43.879Z,10.24
2019-04-26T03:54:42.771Z,10.18
2019-04-26T03:55:43.709Z,10.24
2019-04-26T03:56:43.498Z,10.15
2019-04-26T03:57:44.205Z,10.17
2019-04-26T03:58:43.572Z,10.06
2019-04-26T03:59:44.006Z,10.10
2019-04-26T04:00:43.423Z,10.15
2019-04-26T04:01:43.211Z,10.24
2019-04-26T04:02:43.411Z,10.15
2019-04-26T04:03:45.413Z,10.21
2019-04-26T04:04:43.280Z,10.20
2019-04-26T04:05:44.246Z,10.21
2019-04-26T04:07:02.456Z,10.24
2019-04-26T04:07:48.059Z,10.30
2019-04-26T04:08:44.094Z,10.24
2019-04-26T04:09:42.892Z,10.41
2019-04-26T04:10:44.104Z,10.36
2019-04-26T04:11:44.440Z,10.46
2019-04-26T04:12:44.435Z,10.49
2019-04-26T04:13:46.742Z,10.57
2019-04-26T04:14:44.724Z,10.58
2019-04-26T04:15:44.700Z,10.64
2019-04-26T04:16:43.664Z,10.62
2019-04-26T04:17:45.382Z,10.68
2019-04-26T04:18:44.162Z,10.72
2019-04-26T04:19:43.975Z,10.86
2019-04-26T04:20:44.392Z,10.86
2019-04-26T04:21:44.494Z,10.86
2019-04-26T04:22:45.026Z,10.90
2019-04-26T04:23:43.569Z,11.01
2019-04-26T04:24:45.069Z,11.00
2019-04-26T04:25:44.124Z,11.04
2019-04-26T04:26:44.697Z,10.95
2019-04-26T04:27:44.095Z,10.86
2019-04-26T04:28:44.513Z,10.87
2019-04-26T04:29:49.007Z,10.84
2019-04-26T04:30:44.023Z,10.98
2019-04-26T04:31:44.156Z,11.07
2019-04-26T04:32:44.451Z,11.18
2019-04-26T04:33:45.155Z,11.43
2019-04-26T04:34:45.476Z,11.60
2019-04-26T04:35:44.309Z,11.93
2019-04-26T04:36:44.568Z,12.02
2019-04-26T04:38:01.802Z,12.23
2019-04-26T04:38:44.700Z,12.45
2019-04-26T04:39:44.830Z,12.76
2019-04-26T04:40:44.777Z,13.03
2019-04-26T04:41:45.071Z,13.55
2019-04-26T04:42:43.902Z,14.03
2019-04-26T04:43:45.226Z,14.52
2019-04-26T04:44:44.464Z,14.85
2019-04-26T04:45:45.694Z,15.12
2019-04-26T04:46:45.364Z,15.22
2019-04-26T04:47:46.026Z,15.23
2019-04-26T04:48:45.199Z,15.15
2019-04-26T04:49:44.950Z,15.23
2019-04-26T04:50:45.493Z,15.32
2019-04-26T04:51:44.940Z,15.43
2019-04-26T04:52:44.966Z,15.50
2019-04-26T04:53:45.109Z,15.62
2019-04-26T04:54:44.669Z,15.76
2019-04-26T04:55:45.184Z,15.91
2019-04-26T04:56:44.159Z,16.05
2019-04-26T04:57:44.196Z,16.24
2019-04-26T04:58:44.869Z,16.18
2019-04-26T04:59:44.263Z,16.34
2019-04-26T05:00:45.092Z,16.58
2019-04-26T05:01:44.332Z,16.74
2019-04-26T05:02:44.917Z,16.72
2019-04-26T05:03:45.059Z,16.87
2019-04-26T05:04:45.241Z,16.72
2019-04-26T05:05:44.947Z,16.36
2019-04-26T05:06:45.012Z,16.39
2019-04-26T05:07:45.236Z,16.61
2019-04-26T05:08:45.539Z,16.95
2019-04-26T05:09:45.299Z,16.98
2019-04-26T05:10:45.546Z,16.94
2019-04-26T05:11:45.797Z,17.01
2019-04-26T05:12:45.798Z,16.84
2019-04-26T05:13:45.256Z,16.86
2019-04-26T05:14:46.159Z,17.07
2019-04-26T05:15:44.849Z,17.23
2019-04-26T05:16:45.436Z,17.14
2019-04-26T05:17:46.070Z,17.07
2019-04-26T05:18:45.666Z,17.35
2019-04-26T05:19:45.859Z,17.13
2019-04-26T05:20:46.031Z,17.12
2019-04-26T05:21:45.398Z,16.92
2019-04-26T05:22:46.330Z,17.30
2019-04-26T05:23:46.218Z,17.04
2019-04-26T05:24:45.726Z,17.30
2019-04-26T05:25:46.509Z,17.23
2019-04-26T05:26:46.122Z,16.98
2019-04-26T05:27:46.776Z,16.61
2019-04-26T05:28:46.238Z,16.54
2019-04-26T05:29:46.454Z,16.18
2019-04-26T05:30:46.521Z,16.59
2019-04-26T05:31:47.078Z,16.31
2019-04-26T05:32:47.110Z,16.31
2019-04-26T05:33:46.143Z,16.31
2019-04-26T05:34:46.262Z,16.47
2019-04-26T05:35:46.256Z,16.40
2019-04-26T05:36:46.307Z,16.40
2019-04-26T05:37:46.712Z,16.55
2019-04-26T05:38:47.803Z,16.39
2019-04-26T05:39:47.711Z,16.37
2019-04-26T05:40:45.807Z,17.01
2019-04-26T05:41:45.848Z,17.24
2019-04-26T05:42:45.883Z,17.46
2019-04-26T05:43:45.927Z,17.53
2019-04-26T05:44:45.962Z,17.07
2019-04-26T05:45:46.004Z,16.92
2019-04-26T05:46:46.038Z,17.27
2019-04-26T05:47:46.077Z,17.52
2019-04-26T05:48:46.119Z,17.49
2019-04-26T05:49:46.159Z,17.47
2019-04-26T05:50:46.196Z,17.47
2019-04-26T05:51:46.235Z,17.35
2019-04-26T05:52:46.276Z,17.52
2019-04-26T05:53:46.318Z,17.39
2019-04-26T05:54:46.353Z,17.20
2019-04-26T05:55:46.395Z,17.59
2019-04-26T05:56:46.436Z,17.56
2019-04-26T05:57:46.475Z,17.87
2019-04-26T05:58:46.528Z,17.88
2019-04-26T05:59:46.554Z,17.54
2019-04-26T06:00:46.604Z,18.23
2019-04-26T06:01:46.678Z,18.11
2019-04-26T06:02:46.679Z,18.03
2019-04-26T06:03:46.713Z,18.46
2019-04-26T06:04:46.754Z,19.01
2019-04-26T06:05:46.797Z,19.17
2019-04-26T06:06:46.835Z,19.09
2019-04-26T06:07:46.876Z,19.62
2019-04-26T06:08:46.916Z,19.60
2019-04-26T06:09:46.956Z,19.07
2019-04-26T06:10:46.999Z,18.89
2019-04-26T06:11:47.039Z,19.08
2019-04-26T06:12:47.079Z,19.22
2019-04-26T06:13:47.124Z,19.16
2019-04-26T06:14:47.163Z,18.96
2019-04-26T06:15:47.202Z,18.98
2019-04-26T06:16:47.246Z,19.20
2019-04-26T06:17:47.285Z,19.04
2019-04-26T06:18:47.326Z,18.91
2019-04-26T06:19:47.366Z,18.41
2019-04-26T06:20:47.409Z,18.26
2019-04-26T06:21:47.449Z,18.55
2019-04-26T06:22:47.492Z,19.04
2019-04-26T06:23:47.532Z,18.16
2019-04-26T06:24:47.575Z,18.34
2019-04-26T06:25:47.618Z,18.68
2019-04-26T06:26:47.656Z,19.04
2019-04-26T06:27:47.698Z,18.91
2019-04-26T06:28:47.741Z,19.23
2019-04-26T06:29:47.781Z,18.83
2019-04-26T06:30:47.828Z,18.27
2019-04-26T06:31:47.865Z,18.24
2019-04-26T06:32:56.352Z,17.98
2019-04-26T06:33:47.952Z,18.24
2019-04-26T06:34:47.991Z,18.43
2019-04-26T06:35:48.064Z,18.85
2019-04-26T06:36:48.076Z,18.98
2019-04-26T06:37:48.119Z,19.07
2019-04-26T06:38:48.162Z,19.19
2019-04-26T06:39:48.199Z,19.34
2019-04-26T06:40:48.248Z,19.04
2019-04-26T06:41:48.283Z,18.83
2019-04-26T06:42:48.325Z,19.29
2019-04-26T06:43:48.373Z,19.05
2019-04-26T06:44:48.415Z,18.91
2019-04-26T06:45:48.457Z,18.89
2019-04-26T06:46:48.495Z,19.00
2019-04-26T06:47:48.543Z,18.98
2019-04-26T06:48:48.581Z,18.49
2019-04-26T06:49:48.625Z,19.09
2019-04-26T06:50:48.663Z,19.05
2019-04-26T06:51:48.709Z,19.20
2019-04-26T06:52:48.751Z,19.05
2019-04-26T06:53:48.795Z,18.89
2019-04-26T06:54:48.834Z,18.86
2019-04-26T06:55:48.876Z,18.53
2019-04-26T06:56:48.920Z,18.24
2019-04-26T06:57:48.968Z,18.03
2019-04-26T06:58:49.007Z,18.02
2019-04-26T06:59:49.050Z,18.24
2019-04-26T07:00:49.142Z,18.68
2019-04-26T07:01:49.132Z,18.58
2019-04-26T07:02:49.174Z,18.61
2019-04-26T07:03:49.266Z,18.48
2019-04-26T07:04:49.261Z,19.07
2019-04-26T07:05:49.304Z,19.32
2019-04-26T07:06:49.348Z,19.04
2019-04-26T07:07:49.388Z,19.00
2019-04-26T07:08:57.058Z,18.42
2019-04-26T07:09:49.477Z,18.88
2019-04-26T07:10:49.602Z,19.30
2019-04-26T07:11:49.561Z,19.11
2019-04-26T07:12:49.606Z,19.20
2019-04-26T07:13:49.647Z,19.15
2019-04-26T07:14:49.689Z,19.11
2019-04-26T07:15:49.734Z,18.76
2019-04-26T07:16:49.776Z,19.08
2019-04-26T07:17:49.823Z,18.98
2019-04-26T07:18:49.863Z,18.88
2019-04-26T07:19:49.908Z,19.09
2019-04-26T07:20:49.949Z,18.92
2019-04-26T07:21:50.029Z,18.76
2019-04-26T07:22:50.037Z,19.16
2019-04-26T07:23:50.083Z,19.20
2019-04-26T07:24:50.127Z,18.94
2019-04-26T07:25:50.168Z,18.70
2019-04-26T07:26:50.210Z,18.48
2019-04-26T07:28:03.175Z,18.27
2019-04-26T07:28:50.305Z,18.31
2019-04-26T07:29:50.342Z,18.71
2019-04-26T07:30:50.383Z,18.96
2019-04-26T07:31:50.427Z,19.32
2019-04-26T07:32:50.473Z,19.01
2019-04-26T07:33:50.518Z,19.30
2019-04-26T07:34:50.559Z,19.84
2019-04-26T07:35:50.607Z,20.04
2019-04-26T07:36:50.646Z,20.03
2019-04-26T07:37:50.691Z,19.85
2019-04-26T07:38:50.745Z,20.21
2019-04-26T07:39:50.782Z,19.71
2019-04-26T07:40:50.821Z,19.74
2019-04-26T07:41:51.488Z,19.72
2019-04-26T07:42:50.910Z,20.11
2019-04-26T07:43:50.954Z,20.34
2019-04-26T07:44:51.003Z,20.34
2019-04-26T07:45:51.047Z,20.48
2019-04-26T07:46:51.091Z,20.29
2019-04-26T07:47:51.133Z,20.11
2019-04-26T07:48:51.180Z,20.59
2019-04-26T07:49:51.226Z,20.30
2019-04-26T07:50:51.267Z,20.73
2019-04-26T07:51:51.311Z,21.07
2019-04-26T07:52:51.358Z,20.70
2019-04-26T07:53:51.407Z,20.67
2019-04-26T07:54:51.449Z,19.90
2019-04-26T07:55:51.493Z,19.75
2019-04-26T07:56:51.538Z,19.35
2019-04-26T07:57:51.585Z,19.09
2019-04-26T07:58:51.629Z,18.85
2019-04-26T07:59:51.676Z,18.74
2019-04-26T08:00:51.718Z,19.08
2019-04-26T08:01:51.765Z,18.89
2019-04-26T08:02:51.807Z,18.53
2019-04-26T08:03:51.852Z,18.74
2019-04-26T08:04:51.896Z,18.86
2019-04-26T08:05:51.940Z,19.05
2019-04-26T08:06:51.983Z,18.94
2019-04-26T08:07:52.028Z,19.05
2019-04-26T08:08:52.072Z,19.55
2019-04-26T08:09:59.963Z,19.08
2019-04-26T08:10:52.162Z,19.05
2019-04-26T08:11:52.204Z,19.16
2019-04-26T08:12:52.250Z,18.78
2019-04-26T08:13:52.292Z,18.41
2019-04-26T08:14:52.339Z,18.61
2019-04-26T08:15:52.383Z,18.86
2019-04-26T08:16:52.423Z,19.00
2019-04-26T08:17:52.468Z,19.04
2019-04-26T08:18:52.574Z,19.05
2019-04-26T08:19:53.548Z,18.86
2019-04-26T08:20:52.602Z,18.88
2019-04-26T08:21:52.653Z,18.83
2019-04-26T08:22:52.683Z,18.70
2019-04-26T08:23:56.509Z,18.27
2019-04-26T08:24:52.773Z,18.03
2019-04-26T08:25:52.818Z,17.79
2019-04-26T08:26:52.858Z,17.88
2019-04-26T08:27:52.901Z,18.24
2019-04-26T08:28:52.943Z,18.28
2019-04-26T08:29:52.987Z,18.12
2019-04-26T08:30:53.029Z,17.76
2019-04-26T08:31:53.630Z,17.98
2019-04-26T08:32:53.118Z,18.12
2019-04-26T08:33:53.314Z,18.18
2019-04-26T08:34:53.201Z,17.78
2019-04-26T08:35:53.444Z,17.71
2019-04-26T08:36:53.290Z,17.66
2019-04-26T08:37:53.329Z,17.78
2019-04-26T08:38:54.065Z,18.06
2019-04-26T08:39:53.414Z,18.26
2019-04-26T08:40:53.457Z,18.60
2019-04-26T08:41:53.500Z,18.26
2019-04-26T08:42:57.381Z,17.93
2019-04-26T08:43:55.788Z,17.57
2019-04-26T08:44:53.630Z,17.37
2019-04-26T08:46:02.800Z,18.02
2019-04-26T08:46:53.715Z,17.63
2019-04-26T08:47:53.755Z,17.75
2019-04-26T08:48:53.798Z,17.35
2019-04-26T08:49:53.840Z,17.38
2019-04-26T08:50:53.892Z,17.66
2019-04-26T08:51:55.951Z,17.53
2019-04-26T08:52:53.971Z,17.71
2019-04-26T08:53:54.015Z,18.46
2019-04-26T08:54:54.054Z,18.79
2019-04-26T08:55:54.095Z,19.67
2019-04-26T08:56:54.142Z,19.17
2019-04-26T08:57:54.182Z,18.34
2019-04-26T08:58:54.226Z,18.37
2019-04-26T08:59:54.272Z,18.27
2019-04-26T09:00:54.316Z,18.34
2019-04-26T09:01:54.359Z,19.08
2019-04-26T09:02:54.399Z,18.96
2019-04-26T09:03:54.444Z,19.09
2019-04-26T09:04:54.486Z,18.76
2019-04-26T09:05:54.534Z,18.83
2019-04-26T09:06:54.572Z,19.24
2019-04-26T09:07:57.564Z,19.20
2019-04-26T09:08:54.664Z,18.41
2019-04-26T09:09:57.479Z,18.68
2019-04-26T09:10:54.747Z,18.45
2019-04-26T09:11:59.812Z,18.60
2019-04-26T09:12:54.834Z,18.88
2019-04-26T09:13:54.883Z,18.91
2019-04-26T09:14:54.924Z,18.68
2019-04-26T09:15:54.989Z,18.31
2019-04-26T09:16:55.009Z,19.82
2019-04-26T09:17:55.054Z,20.42
2019-04-26T09:18:59.445Z,19.55
2019-04-26T09:19:58.024Z,19.56
2019-04-26T09:20:55.185Z,19.56
2019-04-26T09:21:55.230Z,19.34
2019-04-26T09:22:56.628Z,19.53
2019-04-26T09:23:55.324Z,19.59
2019-04-26T09:24:59.362Z,20.07
2019-04-26T09:25:59.348Z,20.32
2019-04-26T09:26:55.451Z,20.63
2019-04-26T09:27:55.495Z,21.59
2019-04-26T09:28:56.544Z,20.86
2019-04-26T09:29:55.585Z,21.05
2019-04-26T09:30:55.632Z,21.91
2019-04-26T09:31:55.676Z,21.60
2019-04-26T09:32:58.350Z,21.29
2019-04-26T09:33:55.768Z,20.92
2019-04-26T09:34:55.813Z,20.53
2019-04-26T09:35:55.861Z,20.33
2019-04-26T09:36:55.908Z,19.90
2019-04-26T09:37:55.953Z,20.42
2019-04-26T09:38:56.002Z,21.04
2019-04-26T09:39:56.050Z,21.47
2019-04-26T09:40:57.200Z,21.68
2019-04-26T09:41:56.147Z,21.33
2019-04-26T09:42:56.191Z,21.15
2019-04-26T09:43:58.874Z,20.37
2019-04-26T09:44:56.928Z,21.38
2019-04-26T09:45:56.335Z,22.18
2019-04-26T09:46:56.379Z,22.28
2019-04-26T09:47:56.432Z,22.65
2019-04-26T09:48:56.475Z,22.30
2019-04-26T09:49:56.527Z,21.92
2019-04-26T09:50:56.574Z,21.25
2019-04-26T09:51:56.624Z,20.86
2019-04-26T09:52:58.222Z,20.83
2019-04-26T09:53:56.731Z,21.05
2019-04-26T09:54:56.768Z,21.72
2019-04-26T09:55:56.821Z,21.45
2019-04-26T09:56:56.868Z,22.01
2019-04-26T09:57:58.024Z,22.31
2019-04-26T09:58:56.965Z,22.12
2019-04-26T09:59:57.016Z,22.16
2019-04-26T10:00:57.063Z,22.40
2019-04-26T10:01:59.514Z,21.45
2019-04-26T10:02:57.161Z,21.77
2019-04-26T10:03:57.211Z,22.26
2019-04-26T10:04:57.264Z,22.53
2019-04-26T10:05:57.312Z,22.33
2019-04-26T10:06:59.439Z,21.80
2019-04-26T10:07:57.409Z,21.29
2019-04-26T10:08:57.459Z,22.07
2019-04-26T10:10:00.837Z,21.74
2019-04-26T10:10:57.556Z,22.36
2019-04-26T10:11:57.603Z,22.53
2019-04-26T10:12:57.657Z,22.51
2019-04-26T10:13:57.715Z,22.80
2019-04-26T10:14:57.752Z,22.06
2019-04-26T10:15:58.215Z,21.92
2019-04-26T10:16:57.853Z,21.75
2019-04-26T10:17:57.901Z,21.69
2019-04-26T10:18:58.298Z,21.10
2019-04-26T10:19:57.998Z,21.20
2019-04-26T10:20:58.051Z,20.56
2019-04-26T10:21:58.133Z,21.32
2019-04-26T10:22:58.144Z,22.51
2019-04-26T10:23:58.194Z,22.36
2019-04-26T10:25:02.306Z,22.76
2019-04-26T10:25:58.297Z,22.88
2019-04-26T10:26:59.217Z,22.86
2019-04-26T10:27:58.391Z,22.95
2019-04-26T10:28:58.441Z,23.16
2019-04-26T10:30:08.038Z,23.29
2019-04-26T10:30:58.542Z,24.00
2019-04-26T10:31:58.589Z,24.32
2019-04-26T10:33:02.281Z,25.07
2019-04-26T10:33:58.689Z,24.41
2019-04-26T10:34:58.745Z,24.34
2019-04-26T10:35:58.794Z,22.77
2019-04-26T10:37:01.515Z,23.66
2019-04-26T10:37:58.891Z,23.29
2019-04-26T10:38:59.673Z,22.89
2019-04-26T10:39:58.994Z,22.38
2019-04-26T10:40:59.044Z,23.18
2019-04-26T10:41:59.095Z,22.93
2019-04-26T10:42:59.143Z,22.93
2019-04-26T10:43:59.196Z,23.36
2019-04-26T10:44:59.249Z,23.92
2019-04-26T10:45:59.300Z,22.80
2019-04-26T10:46:59.820Z,22.10
2019-04-26T10:47:59.406Z,21.58
2019-04-26T10:49:08.532Z,21.30
2019-04-26T10:49:59.499Z,21.33
2019-04-26T10:50:59.551Z,21.75
2019-04-26T10:51:59.598Z,22.16
2019-04-26T10:52:59.649Z,22.53
2019-04-26T10:54:01.759Z,22.41
2019-04-26T10:54:59.759Z,23.63
2019-04-26T10:55:59.795Z,24.38
2019-04-26T10:56:59.843Z,24.24
2019-04-26T10:57:59.894Z,24.59
2019-04-26T10:58:59.942Z,24.56
2019-04-26T10:59:59.992Z,23.86
2019-04-26T11:01:00.047Z,22.67
2019-04-26T11:02:00.094Z,23.01
2019-04-26T11:03:04.331Z,21.77
2019-04-26T11:04:00.194Z,21.53
2019-04-26T11:05:00.242Z,21.25
2019-04-26T11:06:00.293Z,21.15
2019-04-26T11:07:02.027Z,20.93
2019-04-26T11:08:00.392Z,21.74
2019-04-26T11:09:00.442Z,21.62
2019-04-26T11:10:02.861Z,22.46
2019-04-26T11:11:00.546Z,22.06
2019-04-26T11:12:00.590Z,21.74
2019-04-26T11:13:00.640Z,21.17
2019-04-26T11:14:00.689Z,20.93
2019-04-26T11:15:00.740Z,20.90
2019-04-26T11:16:02.620Z,21.33
2019-04-26T11:17:00.834Z,21.74
2019-04-26T11:18:00.890Z,22.23
2019-04-26T11:19:02.149Z,22.58
2019-04-26T11:20:00.982Z,22.88
2019-04-26T11:21:01.034Z,22.76
2019-04-26T11:22:01.079Z,22.43
2019-04-26T11:23:01.124Z,22.78
2019-04-26T11:24:01.173Z,22.08
2019-04-26T11:25:01.223Z,21.35
2019-04-26T11:26:01.918Z,21.48
2019-04-26T11:27:01.322Z,21.88
2019-04-26T11:28:01.371Z,21.74
2019-04-26T11:29:01.419Z,22.31
2019-04-26T11:30:11.223Z,22.31
2019-04-26T11:31:01.512Z,22.07
2019-04-26T11:32:02.799Z,21.43
2019-04-26T11:33:01.609Z,21.01
2019-04-26T11:34:05.296Z,20.10
2019-04-26T11:35:01.935Z,19.67
2019-04-26T11:36:03.562Z,19.96
2019-04-26T11:37:01.800Z,20.03
2019-04-26T11:38:01.898Z,19.72
2019-04-26T11:39:05.623Z,20.07
2019-04-26T11:40:01.944Z,20.08
2019-04-26T11:41:06.094Z,20.92
2019-04-26T11:42:02.032Z,20.89
2019-04-26T11:43:02.085Z,20.86
2019-04-26T11:44:02.123Z,20.63
2019-04-26T11:45:06.516Z,20.60
2019-04-26T11:46:04.714Z,20.75
2019-04-26T11:47:03.290Z,21.14
2019-04-26T11:48:03.355Z,21.63
2019-04-26T11:49:03.194Z,21.15
2019-04-26T11:50:02.509Z,21.35
2019-04-26T11:51:02.451Z,21.56
2019-04-26T11:52:03.157Z,21.92
2019-04-26T11:53:02.536Z,21.63
2019-04-26T11:54:02.582Z,21.59
2019-04-26T11:55:02.632Z,21.47
2019-04-26T11:56:04.512Z,21.04
2019-04-26T11:57:02.730Z,20.59
2019-04-26T11:58:02.770Z,21.04
2019-04-26T11:59:02.815Z,21.63
2019-04-26T12:00:05.589Z,22.18
2019-04-26T12:01:02.902Z,22.38
2019-04-26T12:02:02.950Z,22.74
2019-04-26T12:03:03.009Z,22.81
2019-04-26T12:04:03.042Z,22.81
2019-04-26T12:05:03.095Z,22.92
2019-04-26T12:06:03.137Z,21.89
2019-04-26T12:07:03.182Z,21.94
2019-04-26T12:08:03.230Z,22.31
2019-04-26T12:09:03.278Z,22.89
2019-04-26T12:10:05.820Z,22.81
2019-04-26T12:11:03.371Z,22.63
2019-04-26T12:12:04.848Z,22.56
2019-04-26T12:13:05.996Z,22.37
2019-04-26T12:14:04.071Z,22.38
2019-04-26T12:15:08.132Z,22.31
2019-04-26T12:16:03.611Z,22.67
2019-04-26T12:17:03.658Z,22.51
2019-04-26T12:18:05.660Z,22.14
2019-04-26T12:19:03.754Z,21.44
2019-04-26T12:20:03.805Z,21.00
2019-04-26T12:21:03.850Z,20.88
2019-04-26T12:22:04.368Z,21.11
2019-04-26T12:23:03.944Z,21.26
2019-04-26T12:24:03.993Z,22.04
2019-04-26T12:25:07.270Z,22.12
2019-04-26T12:26:04.090Z,21.70
2019-04-26T12:27:04.163Z,21.44
2019-04-26T12:28:06.141Z,21.29
2019-04-26T12:29:04.232Z,21.23
2019-04-26T12:30:04.282Z,22.21
2019-04-26T12:31:04.326Z,22.76
2019-04-26T12:32:04.375Z,22.16
2019-04-26T12:33:04.423Z,22.01
2019-04-26T12:34:04.475Z,21.69
2019-04-26T12:35:04.515Z,22.18
2019-04-26T12:36:04.567Z,21.83
2019-04-26T12:37:04.614Z,21.43
2019-04-26T12:38:04.660Z,22.10
2019-04-26T12:39:04.705Z,21.94
2019-04-26T12:40:07.193Z,22.21
2019-04-26T12:41:04.805Z,22.40
2019-04-26T12:42:08.321Z,22.36
2019-04-26T12:43:04.898Z,22.36
2019-04-26T12:44:04.950Z,22.25
2019-04-26T12:45:04.993Z,22.49
2019-04-26T12:46:05.041Z,22.31
2019-04-26T12:47:05.282Z,22.68
2019-04-26T12:48:07.905Z,22.31
2019-04-26T12:49:05.185Z,22.31
2019-04-26T12:50:05.235Z,22.10
2019-04-26T12:51:08.217Z,22.07
2019-04-26T12:52:05.326Z,21.41
2019-04-26T12:53:05.372Z,21.11
2019-04-26T12:54:08.382Z,21.17